Time;durP1;ratioP1;P1;durP2;ratioP2;P2;SDS_P1;SDS_P2;PMS_P1;PMS_P2;Temp;Humidity;BMP_temperature;BMP_pressure;BME280_temperature;BME280_humidity;BME280_pressure;Samples;Min_cycle;Max_cycle;Signal;HPM_P1;HPM_P2
2022/04/18 00:00:27;;;;;;;16.63;9.20;;;;;;;2.66;100.00;94566.84;5093752;28;20097;-43
2022/04/18 00:02:54;;;;;;;18.33;9.60;;;;;;;2.64;100.00;94573.94;5093651;28;20498;-46
2022/04/18 00:05:21;;;;;;;17.83;8.52;;;;;;;2.65;100.00;94580.69;5103905;28;20043;-40
2022/04/18 00:07:48;;;;;;;39.05;15.90;;;;;;;2.74;100.00;94577.00;5096384;28;20664;-40
2022/04/18 00:10:14;;;;;;;20.10;10.30;;;;;;;2.72;100.00;94571.25;5099544;28;20117;-43
2022/04/18 00:12:42;;;;;;;3.45;2.65;;;;;;;2.72;100.00;94571.25;5095129;28;20036;-41
2022/04/18 00:15:09;;;;;;;1.75;1.35;;;;;;;2.45;100.00;94571.06;5095764;28;20836;-41
2022/04/18 00:17:36;;;;;;;5.05;3.45;;;;;;;2.48;100.00;94572.44;5094077;28;20533;-41
2022/04/18 00:20:03;;;;;;;6.82;3.30;;;;;;;2.49;100.00;94572.25;5098251;28;20044;-41
2022/04/18 00:22:30;;;;;;;5.80;2.85;;;;;;;2.46;100.00;94572.63;5090368;28;20052;-40
2022/04/18 00:24:57;;;;;;;7.18;3.13;;;;;;;2.44;100.00;94564.31;5093900;28;20513;-41
2022/04/18 00:27:24;;;;;;;5.25;2.78;;;;;;;2.61;100.00;94558.88;5096355;28;20036;-42
2022/04/18 00:29:51;;;;;;;3.75;2.25;;;;;;;2.51;100.00;94561.00;5091227;28;21618;-43
2022/04/18 00:32:17;;;;;;;5.03;2.28;;;;;;;2.54;100.00;94552.91;5096398;28;20048;-41
2022/04/18 00:34:44;;;;;;;2.15;1.10;;;;;;;2.59;100.00;94561.66;5098394;28;20047;-41
2022/04/18 00:37:17;;;;;;;2.47;1.25;;;;;;;2.61;100.00;94553.75;5097127;28;20044;-41
2022/04/18 00:39:44;;;;;;;1.88;1.08;;;;;;;2.66;100.00;94556.56;5095164;28;20044;-42
2022/04/18 00:42:10;;;;;;;2.17;1.17;;;;;;;2.78;100.00;94557.63;5087446;28;20102;-43
2022/04/18 00:44:37;;;;;;;3.35;1.33;;;;;;;2.81;100.00;94559.81;5094606;28;20386;-41
2022/04/18 00:47:05;;;;;;;2.25;0.90;;;;;;;2.89;100.00;94555.50;5077509;28;20046;-42
2022/04/18 00:49:34;;;;;;;2.83;1.20;;;;;;;2.93;100.00;94549.78;5094730;28;20058;-41
2022/04/18 00:52:03;;;;;;;1.40;0.80;;;;;;;2.98;100.00;94554.38;5096743;28;20115;-41
2022/04/18 00:54:33;;;;;;;2.22;1.20;;;;;;;2.94;100.00;94545.44;5096417;28;20040;-41
2022/04/18 00:57:02;;;;;;;2.63;1.02;;;;;;;2.97;100.00;94547.63;5079896;28;20044;-43
2022/04/18 00:59:32;;;;;;;1.63;1.00;;;;;;;2.93;100.00;94546.44;5074587;28;20070;-41
2022/04/18 01:01:59;;;;;;;1.40;0.80;;;;;;;2.98;100.00;94544.88;5078258;28;20048;-41
2022/04/18 01:04:26;;;;;;;1.25;0.80;;;;;;;2.97;100.00;94537.34;5071984;28;20039;-42
2022/04/18 01:06:53;;;;;;;1.67;0.90;;;;;;;2.97;100.00;94539.91;5097893;28;20040;-42
2022/04/18 01:09:21;;;;;;;1.55;0.60;;;;;;;2.91;100.00;94538.09;5097669;28;20040;-41
2022/04/18 01:11:49;;;;;;;1.35;0.77;;;;;;;2.89;100.00;94540.06;5095922;28;20050;-42
2022/04/18 01:14:36;;;;;;;2.60;1.00;;;;;;;2.91;100.00;94532.97;5086911;28;20035;-43
2022/04/18 01:17:21;;;;;;;1.10;0.75;;;;;;;2.91;100.00;94527.81;5095969;28;20423;-41
2022/04/18 01:20:07;;;;;;;1.73;0.73;;;;;;;2.90;100.00;94536.50;5093827;28;20115;-42
2022/04/18 01:22:45;;;;;;;2.05;0.82;;;;;;;2.91;100.00;94522.66;5073648;28;20067;-41
2022/04/18 01:31:07;;;;;;;1.58;1.20;;;;;;;2.90;100.00;94521.06;5071466;28;20055;-42
2022/04/18 01:33:34;;;;;;;1.38;0.93;;;;;;;2.87;100.00;94515.31;5094047;28;20424;-41
2022/04/18 01:36:01;;;;;;;1.63;0.70;;;;;;;2.92;100.00;94519.09;5078648;28;20039;-43
2022/04/18 01:38:29;;;;;;;1.20;0.90;;;;;;;2.97;100.00;94506.47;5076051;28;20497;-44
2022/04/18 01:40:58;;;;;;;0.95;0.65;;;;;;;2.99;100.00;94510.44;5077952;28;20055;-42
2022/04/18 01:43:24;;;;;;;4.25;1.52;;;;;;;3.01;100.00;94512.84;5071530;28;20040;-41
2022/04/18 01:45:56;;;;;;;3.65;1.55;;;;;;;3.04;99.77;94513.25;5075286;28;20039;-41
2022/04/18 01:48:25;;;;;;;2.55;1.40;;;;;;;3.05;99.66;94503.72;5080605;28;20047;-41
2022/04/18 01:50:52;;;;;;;1.75;1.00;;;;;;;3.05;97.67;94503.72;5091558;28;20387;-41
2022/04/18 01:53:20;;;;;;;1.02;0.68;;;;;;;2.97;96.06;94501.31;5071437;28;20064;-43
2022/04/18 01:55:47;;;;;;;2.33;1.17;;;;;;;2.95;95.84;94498.16;5075696;28;20109;-45
2022/04/18 01:58:14;;;;;;;3.15;1.55;;;;;;;2.98;97.43;94492.63;5075790;28;20040;-44
2022/04/18 02:00:41;;;;;;;2.45;1.23;;;;;;;2.95;96.19;94488.63;5077839;28;20127;-42
2022/04/18 02:03:08;;;;;;;2.03;1.20;;;;;;;3.03;95.58;94482.56;5076250;28;20075;-41
2022/04/18 02:05:35;;;;;;;2.15;1.38;;;;;;;3.03;96.02;94490.28;5074781;28;20094;-41
2022/04/18 02:08:02;;;;;;;3.05;1.60;;;;;;;3.07;96.19;94486.31;5075453;28;20067;-42
2022/04/18 02:10:30;;;;;;;2.97;2.08;;;;;;;2.98;97.60;94479.75;5076500;28;20078;-42
2022/04/18 02:12:58;;;;;;;3.10;1.35;;;;;;;2.98;97.67;94472.03;5072628;28;20466;-41
2022/04/18 02:15:26;;;;;;;2.20;1.30;;;;;;;2.83;98.59;94469.63;5075994;28;20043;-41
2022/04/18 02:18:00;;;;;;;4.00;2.28;;;;;;;2.81;99.18;94472.38;5071374;28;20052;-41
2022/04/18 02:20:27;;;;;;;2.42;1.42;;;;;;;2.78;99.34;94470.19;5092838;28;20067;-41
2022/04/18 02:22:56;;;;;;;2.30;1.25;;;;;;;2.71;100.00;94460.84;5094976;28;20040;-40
2022/04/18 02:25:23;;;;;;;7.70;2.10;;;;;;;2.65;100.00;94464.97;5070371;28;20145;-41
2022/04/18 02:27:52;;;;;;;6.65;2.42;;;;;;;2.61;100.00;94466.31;5077968;28;20051;-42
2022/04/18 02:30:19;;;;;;;8.07;3.90;;;;;;;2.64;100.00;94471.09;5075686;28;20501;-41
2022/04/18 02:32:47;;;;;;;5.97;2.63;;;;;;;2.58;100.00;94471.88;5069879;28;20044;-42
2022/04/18 02:35:15;;;;;;;7.95;3.17;;;;;;;2.48;100.00;94470.44;5069711;28;20514;-40
2022/04/18 02:37:42;;;;;;;6.88;3.05;;;;;;;2.35;100.00;94462.63;5070951;28;20055;-40
2022/04/18 02:40:14;;;;;;;8.90;3.10;;;;;;;2.40;100.00;94475.72;5067295;28;20600;-40
2022/04/18 02:42:42;;;;;;;6.38;2.60;;;;;;;2.39;100.00;94468.97;5085291;28;20518;-42
2022/04/18 02:45:14;;;;;;;2.92;1.38;;;;;;;2.35;100.00;94472.91;5067539;28;20044;-41
2022/04/18 02:48:07;;;;;;;2.90;1.58;;;;;;;2.34;100.00;94466.19;5063874;28;20044;-41
2022/04/18 02:50:37;;;;;;;3.58;1.70;;;;;;;2.39;100.00;94471.53;5072911;28;20039;-40
2022/04/18 02:53:05;;;;;;;3.50;1.48;;;;;;;2.44;100.00;94468.41;5072101;28;20043;-41
2022/04/18 02:55:40;;;;;;;1.67;1.08;;;;;;;2.41;100.00;94461.91;5071045;28;20039;-43
2022/04/18 02:58:08;;;;;;;5.10;1.20;;;;;;;2.47;100.00;94462.91;5074399;28;20054;-42
2022/04/18 03:00:36;;;;;;;2.50;1.20;;;;;;;2.57;100.00;94465.91;5072802;28;20040;-41
2022/04/18 03:03:03;;;;;;;2.42;1.10;;;;;;;2.60;100.00;94464.75;5072766;28;20044;-41
2022/04/18 03:05:32;;;;;;;2.17;1.38;;;;;;;2.65;100.00;94464.97;5069967;28;20044;-41
2022/04/18 03:07:59;;;;;;;4.82;1.30;;;;;;;2.71;100.00;94456.50;5070014;28;20052;-41
2022/04/18 03:13:16;;;;;;;2.63;1.27;;;;;;;2.77;100.00;94455.72;5071384;28;20101;-41
2022/04/18 03:15:42;;;;;;;3.85;1.42;;;;;;;2.78;100.00;94462.47;5091761;28;20043;-41
2022/04/18 03:18:10;;;;;;;2.75;1.30;;;;;;;2.85;100.00;94463.28;5071049;28;20417;-43
2022/04/18 03:20:37;;;;;;;4.65;1.88;;;;;;;2.89;100.00;94462.91;5069122;28;20048;-43
2022/04/18 03:23:04;;;;;;;5.75;2.50;;;;;;;2.97;100.00;94465.28;5090854;28;20028;-43
2022/04/18 03:25:48;;;;;;;5.68;2.22;;;;;;;2.99;100.00;94458.19;5071275;28;20127;-42
2022/04/18 03:28:15;;;;;;;6.22;3.00;;;;;;;2.77;100.00;94455.72;5067569;28;20179;-44
2022/04/18 03:30:44;;;;;;;5.03;2.88;;;;;;;2.65;100.00;94454.69;5067702;28;20515;-44
2022/04/18 03:33:11;;;;;;;20.05;4.38;;;;;;;2.74;100.00;94466.41;5071830;28;20048;-43
2022/04/18 03:39:50;;;;;;;3.60;1.90;;;;;;;2.77;100.00;94458.28;5065425;28;20137;-42
2022/04/18 03:41:11;;;;;;;2.30;0.90;;;;;;;2.89;100.00;94458.53;5087553;28;20044;-41
2022/04/18 03:43:38;;;;;;;4.30;1.65;;;;;;;2.87;100.00;94458.72;5068441;28;20040;-41
2022/04/18 03:46:05;;;;;;;2.42;1.02;;;;;;;2.81;98.45;94451.81;5087296;28;20139;-42
2022/04/18 03:48:32;;;;;;;1.55;0.98;;;;;;;2.74;97.20;94456.13;5067687;28;20067;-41
2022/04/18 03:51:00;;;;;;;3.05;1.40;;;;;;;2.78;99.59;94452.16;5067428;28;20040;-42
2022/04/18 03:53:28;;;;;;;1.52;1.13;;;;;;;2.85;100.00;94457.34;5066006;28;20535;-43
2022/04/18 03:55:56;;;;;;;1.65;1.25;;;;;;;2.83;98.22;94449.81;5076387;28;20402;-43
2022/04/18 03:58:42;;;;;;;1.17;0.90;;;;;;;2.81;97.63;94453.56;5082631;28;20059;-42
2022/04/18 04:01:12;;;;;;;1.73;0.95;;;;;;;2.71;99.63;94459.06;5065068;28;20574;-40
2022/04/18 04:03:44;;;;;;;1.67;1.00;;;;;;;2.62;99.09;94465.34;5067398;28;20052;-40
2022/04/18 04:06:11;;;;;;;4.10;1.00;;;;;;;2.59;95.45;94465.72;5068932;28;20052;-41
2022/04/18 04:08:38;;;;;;;1.60;0.90;;;;;;;2.59;95.35;94483.72;5071187;28;20425;-41
2022/04/18 04:11:08;;;;;;;1.77;1.20;;;;;;;2.56;97.85;94479.75;5068243;28;20040;-42
2022/04/18 04:13:37;;;;;;;1.27;0.80;;;;;;;2.54;99.45;94473.22;5072239;28;20127;-40
2022/04/18 04:16:16;;;;;;;3.42;2.20;;;;;;;2.60;97.29;94480.19;5069113;28;20044;-42
2022/04/18 04:18:43;;;;;;;2.95;2.13;;;;;;;2.49;97.04;94478.94;5069119;28;20052;-41
2022/04/18 04:21:11;;;;;;;6.57;3.47;;;;;;;2.53;97.68;94479.34;5069692;28;20063;-43
2022/04/18 04:23:39;;;;;;;3.95;2.22;;;;;;;2.45;97.21;94467.44;5067943;28;20072;-41
2022/04/18 04:26:36;;;;;;;3.90;1.65;;;;;;;2.49;97.55;94477.16;5083840;28;20048;-43
2022/04/18 04:29:03;;;;;;;2.92;1.92;;;;;;;2.58;97.34;94474.44;5089909;28;20735;-41
2022/04/18 04:31:41;;;;;;;4.78;2.72;;;;;;;2.56;96.97;94471.28;5069340;28;20040;-42
2022/04/18 04:34:10;;;;;;;5.07;1.75;;;;;;;2.59;95.83;94474.25;5069109;28;20050;-40
2022/04/18 04:36:45;;;;;;;3.40;2.00;;;;;;;2.56;96.20;94463.56;5067190;28;20503;-41
2022/04/18 04:39:16;;;;;;;5.00;2.20;;;;;;;2.62;95.97;94478.22;5067922;28;20043;-45
2022/04/18 04:41:44;;;;;;;2.95;1.80;;;;;;;2.73;95.39;94475.09;5068430;28;20459;-41
2022/04/18 04:44:11;;;;;;;3.72;2.03;;;;;;;2.75;95.40;94493.69;5086394;28;20580;-43
2022/04/18 04:46:56;;;;;;;3.70;2.00;;;;;;;2.77;95.01;94491.72;5089060;28;20058;-42
2022/04/18 04:49:26;;;;;;;3.58;1.98;;;;;;;2.78;93.95;94477.91;5068941;28;20075;-42
2022/04/18 04:52:08;;;;;;;2.58;1.60;;;;;;;2.90;93.27;94490.19;5069768;28;20060;-42
2022/04/18 04:54:35;;;;;;;2.95;1.63;;;;;;;2.92;94.22;94483.09;5070037;28;20126;-44
2022/04/18 04:57:04;;;;;;;3.38;1.40;;;;;;;2.96;93.71;94489.44;5069969;28;20047;-46
2022/04/18 04:59:51;;;;;;;2.85;1.55;;;;;;;3.05;94.67;94488.28;5088821;28;20040;-42
2022/04/18 05:02:18;;;;;;;2.15;1.48;;;;;;;3.20;92.39;94490.72;5068019;28;20054;-43
2022/04/18 05:04:45;;;;;;;2.92;1.42;;;;;;;3.33;92.12;94489.97;5067609;28;20044;-43
2022/04/18 05:07:12;;;;;;;4.45;1.50;;;;;;;3.32;92.12;94489.19;5069384;28;20036;-45
2022/04/18 05:10:00;;;;;;;4.00;2.25;;;;;;;3.29;94.26;94493.91;5067851;28;20044;-41
2022/04/18 05:12:31;;;;;;;4.72;2.47;;;;;;;3.36;95.15;94494.72;5070196;28;20126;-42
2022/04/18 05:15:02;;;;;;;7.88;2.60;;;;;;;3.38;94.46;94482.47;5070248;28;20058;-42
2022/04/18 05:17:37;;;;;;;5.72;1.73;;;;;;;3.45;94.20;94491.00;5069095;28;20047;-41
2022/04/18 05:20:09;;;;;;;5.03;2.50;;;;;;;3.49;94.04;94484.44;5064535;28;20536;-42
2022/04/18 05:22:39;;;;;;;29.75;10.45;;;;;;;3.43;93.51;94495.53;5064207;28;20041;-41
2022/04/18 05:25:11;;;;;;;36.45;14.73;;;;;;;3.55;93.81;94494.00;5064000;28;20048;-43
2022/04/18 05:27:42;;;;;;;33.92;12.88;;;;;;;3.64;92.57;94492.81;5063713;28;20573;-41
2022/04/18 05:30:31;;;;;;;7.57;4.28;;;;;;;3.82;92.16;94491.47;5063668;28;20048;-43
2022/04/18 05:32:59;;;;;;;4.47;2.75;;;;;;;3.89;90.50;94494.84;5063655;28;20067;-43
2022/04/18 05:35:26;;;;;;;6.53;3.03;;;;;;;3.95;90.45;94488.88;5065296;28;20564;-41
2022/04/18 05:37:54;;;;;;;4.88;2.80;;;;;;;4.12;89.64;94485.91;5063731;28;20502;-42
2022/04/18 05:40:50;;;;;;;3.10;1.58;;;;;;;4.27;87.31;94493.41;5055450;28;20076;-41
2022/04/18 05:43:18;;;;;;;10.18;7.68;;;;;;;4.32;84.28;94489.28;5062211;28;20072;-42
2022/04/18 05:45:48;;;;;;;13.02;8.00;;;;;;;4.35;85.90;94499.16;5063523;28;20131;-41
2022/04/18 05:48:15;;;;;;;38.42;17.02;;;;;;;4.49;85.76;94499.16;5061270;28;20040;-41
2022/04/18 05:50:47;;;;;;;2.83;1.92;;;;;;;4.58;84.10;94498.75;5062743;28;20131;-41
2022/04/18 05:53:25;;;;;;;;;;;;;;;4.63;84.20;94500.75;5065103;28;20048;-44
2022/04/18 05:56:10;;;;;;;3.20;1.75;;;;;;;4.60;84.45;94506.28;5063189;28;19931;-43
2022/04/18 05:58:49;;;;;;;4.22;1.42;;;;;;;4.50;85.14;94505.91;5062539;28;20049;-43
2022/04/18 06:01:45;;;;;;;1.88;1.17;;;;;;;4.30;85.82;94511.88;5052034;28;20052;-42
2022/04/18 06:04:25;;;;;;;3.08;2.33;;;;;;;4.17;86.65;94501.56;5061735;28;20098;-43
2022/04/18 06:07:12;;;;;;;4.90;1.65;;;;;;;4.22;88.20;94514.66;5063762;28;20036;-43
2022/04/18 06:09:39;;;;;;;2.78;1.60;;;;;;;4.34;86.03;94507.91;5059397;28;20056;-46
2022/04/18 06:12:13;;;;;;;2.57;1.67;;;;;;;4.54;86.74;94501.94;5061272;28;20590;-44
2022/04/18 06:14:40;;;;;;;2.17;1.73;;;;;;;4.65;84.67;94511.63;5063305;28;20116;-45
2022/04/18 06:17:07;;;;;;;5.85;4.18;;;;;;;4.72;84.63;94509.06;5058124;28;20133;-42
2022/04/18 06:19:35;;;;;;;5.97;2.80;;;;;;;4.85;84.94;94509.00;5064958;28;20059;-43
2022/04/18 06:22:03;;;;;;;6.22;3.05;;;;;;;4.90;84.72;94516.94;5068145;28;20746;-42
2022/04/18 06:24:30;;;;;;;4.38;2.50;;;;;;;4.90;85.63;94511.78;5068213;28;20121;-42
2022/04/18 06:26:57;;;;;;;1.88;1.38;;;;;;;4.68;84.69;94507.84;5089586;28;20044;-42
2022/04/18 06:29:24;;;;;;;7.50;2.50;;;;;;;4.60;83.75;94506.28;5088288;28;20052;-43
2022/04/18 06:31:53;;;;;;;0.80;0.60;;;;;;;4.43;84.03;94513.66;5090662;28;20249;-41
2022/04/18 06:34:21;;;;;;;5.32;1.33;;;;;;;4.40;86.25;94517.41;5070740;28;20134;-41
2022/04/18 06:36:49;;;;;;;1.50;1.17;;;;;;;4.54;89.50;94512.25;5090304;28;20108;-41
2022/04/18 06:39:27;;;;;;;2.35;1.33;;;;;;;4.65;88.43;94521.97;5073208;28;20054;-41
2022/04/18 06:42:06;;;;;;;2.38;1.52;;;;;;;4.68;86.17;94524.16;5068449;28;20044;-42
2022/04/18 06:44:42;;;;;;;5.03;3.75;;;;;;;4.80;86.70;94526.88;5070298;28;20039;-44
2022/04/18 06:47:09;;;;;;;2.55;1.75;;;;;;;5.06;84.70;94520.88;5071325;28;20542;-42
2022/04/18 06:50:00;;;;;;;4.57;2.80;;;;;;;5.22;84.86;94523.97;5068980;28;20132;-41
2022/04/18 06:52:50;;;;;;;4.07;3.10;;;;;;;5.59;85.73;94524.22;5086683;28;20055;-42
2022/04/18 06:58:38;;;;;;;6.45;3.70;;;;;;;5.90;84.03;94521.63;5070729;28;20131;-43
2022/04/18 07:01:06;;;;;;;2.95;1.65;;;;;;;6.15;83.22;94523.50;5071458;28;20051;-43
2022/04/18 07:03:33;;;;;;;2.78;2.00;;;;;;;6.23;80.79;94528.41;5071136;28;20074;-41
2022/04/18 07:06:01;;;;;;;3.90;1.42;;;;;;;6.43;82.35;94530.84;5071411;28;20138;-41
2022/04/18 07:08:28;;;;;;;2.38;1.75;;;;;;;6.60;82.78;94520.72;5071626;28;20126;-42
2022/04/18 07:11:05;;;;;;;1.75;1.30;;;;;;;6.71;78.25;94527.00;5067970;28;20048;-42
2022/04/18 07:13:32;;;;;;;3.42;1.65;;;;;;;6.85;79.06;94528.44;5070063;28;20315;-44
2022/04/18 07:16:00;;;;;;;5.30;2.38;;;;;;;6.94;78.27;94521.19;5068866;28;20063;-42
2022/04/18 07:18:27;;;;;;;4.72;2.55;;;;;;;6.83;78.43;94529.69;5072006;28;20048;-42
2022/04/18 07:20:54;;;;;;;2.17;1.48;;;;;;;7.01;80.14;94526.31;5067637;28;20050;-45
2022/04/18 07:23:21;;;;;;;4.43;2.75;;;;;;;7.34;79.06;94525.94;5066675;28;20561;-44
2022/04/18 07:25:55;;;;;;;3.50;1.75;;;;;;;7.68;77.52;94526.31;5069660;28;20059;-42
2022/04/18 07:28:32;;;;;;;2.03;1.15;;;;;;;7.61;75.54;94531.56;5069752;28;20101;-44
2022/04/18 07:31:01;;;;;;;3.00;1.50;;;;;;;7.70;74.41;94534.66;5069568;28;20106;-43
2022/04/18 07:33:28;;;;;;;2.60;2.10;;;;;;;7.90;74.54;94528.41;5068493;28;20131;-43
2022/04/18 07:35:56;;;;;;;3.05;1.85;;;;;;;7.89;73.23;94526.84;5067573;28;20042;-45
2022/04/18 07:41:09;;;;;;;1.88;1.25;;;;;;;7.39;76.41;94533.84;5070578;28;20129;-42
2022/04/18 07:43:42;;;;;;;6.10;0.82;;;;;;;7.22;75.57;94532.84;5071438;28;20138;-42
2022/04/18 07:46:12;;;;;;;1.50;0.75;;;;;;;6.86;78.59;94524.06;5070062;28;20052;-43
2022/04/18 07:48:39;;;;;;;1.40;0.85;;;;;;;6.88;77.45;94527.25;5068389;28;20054;-44
2022/04/18 07:51:48;;;;;;;1.67;1.13;;;;;;;6.99;76.78;94528.34;5067304;28;20106;-42
2022/04/18 07:53:59;;;;;;;2.78;1.63;;;;;;;7.34;78.57;94536.28;5082628;28;20056;-42
2022/04/18 07:56:27;;;;;;;1.30;0.85;;;;;;;7.25;75.12;94532.41;5067161;28;20055;-42
2022/04/18 07:58:54;;;;;;;1.45;0.77;;;;;;;7.04;80.17;94536.22;5088551;28;20046;-42
2022/04/18 08:01:35;;;;;;;13.82;1.50;;;;;;;7.02;76.94;94539.06;5069052;28;20051;-42
2022/04/18 08:04:03;;;;;;;1.13;0.63;;;;;;;7.13;76.43;94534.16;5070209;28;20056;-42
2022/04/18 08:06:33;;;;;;;1.23;1.00;;;;;;;7.06;74.54;94529.84;5069300;28;20514;-46
2022/04/18 08:09:22;;;;;;;1.33;0.82;;;;;;;7.16;75.99;94525.94;5070879;28;20048;-43
2022/04/18 08:11:49;;;;;;;1.17;0.90;;;;;;;7.12;75.03;94535.16;5069551;28;20044;-43
2022/04/18 08:14:23;;;;;;;1.17;0.90;;;;;;;7.10;76.22;94526.81;5069209;28;20133;-44
2022/04/18 08:17:00;;;;;;;2.10;1.30;;;;;;;7.01;72.98;94532.28;5071411;28;20169;-42
2022/04/18 08:19:35;;;;;;;2.10;1.27;;;;;;;6.93;74.92;94529.97;5070129;28;20097;-43
2022/04/18 08:22:02;;;;;;;1.38;0.80;;;;;;;6.75;76.79;94522.19;5067846;28;20113;-43
2022/04/18 08:24:30;;;;;;;0.90;0.70;;;;;;;6.41;75.74;94521.69;5066686;28;20168;-43
2022/04/18 08:27:20;;;;;;;0.75;0.52;;;;;;;6.02;78.36;94519.22;5057240;28;20039;-43
2022/04/18 08:30:05;;;;;;;2.63;0.57;;;;;;;6.25;77.42;94513.47;5064700;28;20047;-46
2022/04/18 08:33:04;;;;;;;0.88;0.60;;;;;;;6.31;76.35;94528.13;5028860;28;20055;-42
2022/04/18 08:35:32;;;;;;;9.25;2.33;;;;;;;6.39;76.36;94523.69;5068012;28;20039;-42
2022/04/18 08:38:00;;;;;;;4.63;1.48;;;;;;;6.55;76.89;94520.56;5066681;28;20100;-41
2022/04/18 08:40:29;;;;;;;0.70;0.40;;;;;;;6.53;73.96;94522.59;5085443;28;20074;-42
2022/04/18 08:42:58;;;;;;;1.05;0.95;;;;;;;6.59;74.57;94521.75;5067286;28;20048;-43
2022/04/18 08:45:26;;;;;;;1.00;0.40;;;;;;;6.63;74.97;94515.13;5069455;28;20035;-41
2022/04/18 08:53:30;;;;;;;2.15;1.25;;;;;;;7.06;74.13;94511.72;5071580;28;20433;-44
2022/04/18 08:56:01;;;;;;;2.22;1.02;;;;;;;7.16;72.64;94518.19;5066416;28;20498;-41
2022/04/18 08:58:29;;;;;;;2.15;0.70;;;;;;;7.30;69.72;94519.59;5069632;28;20048;-43
2022/04/18 09:00:59;;;;;;;0.93;0.40;;;;;;;6.89;70.59;94513.28;5084614;28;20051;-45
2022/04/18 09:03:50;;;;;;;0.70;0.40;;;;;;;6.25;73.84;94523.81;5089641;28;20555;-43
2022/04/18 09:06:24;;;;;;;0.60;0.35;;;;;;;6.12;73.65;94521.31;5069429;28;20040;-41
2022/04/18 09:09:15;;;;;;;0.57;0.40;;;;;;;5.76;73.34;94499.47;5075173;28;20059;-43
2022/04/18 09:11:46;;;;;;;1.10;0.30;;;;;;;5.50;74.78;94508.94;5067848;28;20417;-41
2022/04/18 09:14:17;;;;;;;0.40;0.30;;;;;;;5.42;75.89;94514.38;5069063;28;20507;-42
2022/04/18 09:16:48;;;;;;;0.20;0.20;;;;;;;5.36;74.93;94515.97;5065414;28;20126;-42
2022/04/18 09:19:33;;;;;;;0.40;0.28;;;;;;;5.44;73.58;94516.72;5088446;28;20067;-41
2022/04/18 09:22:03;;;;;;;0.35;0.25;;;;;;;5.43;73.50;94510.00;5069371;28;20051;-42
2022/04/18 09:24:46;;;;;;;0.28;0.20;;;;;;;5.58;73.71;94504.53;5067467;28;20051;-42
2022/04/18 09:27:18;;;;;;;0.70;0.50;;;;;;;5.90;74.52;94500.16;5067858;28;20058;-43
2022/04/18 09:29:50;;;;;;;2.88;0.40;;;;;;;6.01;72.81;94506.50;5058314;28;20556;-43
2022/04/18 09:32:23;;;;;;;2.15;0.40;;;;;;;5.96;74.52;94503.72;5068642;28;20044;-41
2022/04/18 09:35:15;;;;;;;1.20;0.43;;;;;;;6.15;74.79;94502.81;5084021;28;20406;-46
2022/04/18 09:37:52;;;;;;;0.35;0.22;;;;;;;6.31;74.78;94491.94;5067657;28;20051;-42
2022/04/18 09:40:41;;;;;;;0.30;0.20;;;;;;;6.26;74.16;94493.56;5082242;28;20122;-43
2022/04/18 09:43:13;;;;;;;1.98;0.40;;;;;;;6.33;75.97;94504.66;5066687;28;20289;-42
2022/04/18 09:45:41;;;;;;;2.30;0.50;;;;;;;6.41;72.21;94495.81;5067460;28;20039;-43
2022/04/18 09:48:15;;;;;;;0.88;0.30;;;;;;;6.19;72.55;94503.97;5066888;28;20742;-43
2022/04/18 09:51:01;;;;;;;4.57;1.63;;;;;;;6.20;72.50;94502.97;5068705;28;20085;-43
2022/04/18 09:53:40;;;;;;;1.48;0.80;;;;;;;6.67;69.12;94503.34;5066944;28;20044;-44
2022/04/18 09:56:08;;;;;;;2.47;1.05;;;;;;;6.76;68.61;94503.84;5085563;28;20089;-43
2022/04/18 09:58:36;;;;;;;1.48;1.00;;;;;;;6.98;66.12;94495.66;5083911;28;20113;-43
2022/04/18 10:01:23;;;;;;;4.72;1.35;;;;;;;7.28;65.86;94490.53;5088701;28;20133;-44
2022/04/18 10:03:52;;;;;;;1.33;0.90;;;;;;;7.54;64.03;94504.16;5088394;28;20052;-42
2022/04/18 10:06:20;;;;;;;8.60;1.40;;;;;;;7.82;61.42;94491.41;5088949;28;20039;-41
2022/04/18 10:08:47;;;;;;;1.38;0.98;;;;;;;7.93;60.71;94494.25;5087788;28;20052;-43
2022/04/18 10:11:14;;;;;;;4.05;2.08;;;;;;;8.01;60.81;94499.13;5086518;28;20119;-41
2022/04/18 10:13:41;;;;;;;1.10;0.90;;;;;;;8.29;57.45;94495.13;5088204;28;20430;-44
2022/04/18 10:16:08;;;;;;;2.47;1.05;;;;;;;8.45;57.05;94486.69;5088300;28;20039;-45
2022/04/18 10:18:48;;;;;;;8.52;0.73;;;;;;;8.44;56.83;94487.69;5089151;28;20056;-46
2022/04/18 10:21:33;;;;;;;2.47;1.98;;;;;;;8.09;60.54;94479.88;5089898;28;20051;-42
2022/04/18 10:24:20;;;;;;;1.20;0.82;;;;;;;8.39;55.43;94488.34;5088906;28;20861;-45
2022/04/18 10:27:18;;;;;;;2.03;1.58;;;;;;;8.59;54.17;94490.63;5086706;28;20048;-42
2022/04/18 10:29:49;;;;;;;1.13;1.02;;;;;;;8.63;55.07;94490.19;5086812;28;20441;-44
2022/04/18 10:32:21;;;;;;;3.03;1.58;;;;;;;8.57;54.94;94487.47;5086649;28;20492;-45
2022/04/18 10:34:52;;;;;;;5.25;4.32;;;;;;;8.60;54.38;94487.00;5088541;28;20060;-44
2022/04/18 10:37:25;;;;;;;3.42;2.60;;;;;;;8.69;55.58;94489.28;5085710;28;20044;-42
2022/04/18 10:40:11;;;;;;;1.27;0.90;;;;;;;8.58;55.20;94486.44;5086879;28;20080;-47
2022/04/18 10:42:40;;;;;;;1.17;0.90;;;;;;;8.49;55.39;94490.41;5086412;28;20048;-48
2022/04/18 10:45:08;;;;;;;1.75;0.88;;;;;;;8.63;55.23;94495.38;5087248;28;20060;-48
2022/04/18 10:48:10;;;;;;;1.70;1.23;;;;;;;8.59;54.00;94490.63;5088921;28;20124;-43
2022/04/18 10:50:39;;;;;;;3.10;1.92;;;;;;;8.74;54.81;94492.00;5091830;28;20051;-44
2022/04/18 10:53:08;;;;;;;5.35;4.22;;;;;;;8.50;58.26;94492.00;5089148;28;20048;-44
2022/04/18 10:55:37;;;;;;;5.97;1.70;;;;;;;8.24;59.31;94478.41;5068891;28;20063;-42
2022/04/18 10:58:15;;;;;;;3.40;2.25;;;;;;;7.96;63.31;94486.03;5090360;28;20509;-43
2022/04/18 11:00:58;;;;;;;1.67;1.20;;;;;;;7.74;62.47;94483.16;5086555;28;20056;-42
2022/04/18 11:03:40;;;;;;;3.40;1.60;;;;;;;7.46;61.98;94476.75;5089133;28;20046;-42
2022/04/18 11:06:36;;;;;;;7.43;1.67;;;;;;;7.01;64.75;94477.91;5087261;28;20137;-41
2022/04/18 11:09:08;;;;;;;4.32;1.70;;;;;;;6.90;67.24;94473.44;5087877;28;20582;-43
2022/04/18 11:11:46;;;;;;;3.78;2.88;;;;;;;6.92;68.98;94471.44;5089128;28;20060;-42
2022/04/18 11:14:19;;;;;;;2.05;1.30;;;;;;;6.79;68.63;94471.56;5090006;28;20047;-43
2022/04/18 11:16:47;;;;;;;2.05;1.27;;;;;;;6.76;67.57;94466.84;5090456;28;20056;-41
2022/04/18 11:19:14;;;;;;;2.63;1.90;;;;;;;6.80;69.18;94478.34;5091544;28;20119;-43
2022/04/18 11:22:04;;;;;;;5.15;1.10;;;;;;;7.08;68.13;94473.44;5091236;28;20498;-43
2022/04/18 11:24:46;;;;;;;1.42;1.08;;;;;;;7.02;65.25;94474.31;5089417;28;20044;-42
2022/04/18 11:27:16;;;;;;;1.63;1.10;;;;;;;7.06;64.58;94467.69;5089539;28;20056;-44
2022/04/18 11:29:50;;;;;;;4.88;1.40;;;;;;;7.04;66.78;94474.06;5088442;28;20040;-42
2022/04/18 11:32:18;;;;;;;2.95;1.15;;;;;;;7.40;62.37;94472.44;5091350;28;20067;-42
2022/04/18 11:34:49;;;;;;;6.68;1.95;;;;;;;7.60;61.94;94477.38;5089762;28;20036;-43
2022/04/18 11:37:31;;;;;;;3.53;1.83;;;;;;;7.76;62.43;94471.56;5092442;28;20039;-41
2022/04/18 11:40:00;;;;;;;2.17;1.10;;;;;;;7.91;58.71;94472.97;5093600;28;21544;-43
2022/04/18 11:42:29;;;;;;;1.67;1.15;;;;;;;7.99;58.05;94470.03;5089438;28;20060;-43
2022/04/18 11:44:58;;;;;;;2.45;1.75;;;;;;;8.21;56.64;94478.88;5090637;28;20043;-45
2022/04/18 11:47:29;;;;;;;2.13;1.40;;;;;;;8.40;53.87;94481.34;5092426;28;20413;-44
2022/04/18 11:49:58;;;;;;;1.60;1.30;;;;;;;8.34;53.54;94471.88;5090084;28;20063;-42
2022/04/18 11:52:28;;;;;;;2.60;1.10;;;;;;;8.34;51.03;94477.06;5090315;28;20627;-41
2022/04/18 11:55:01;;;;;;;1.35;1.17;;;;;;;8.30;53.99;94470.72;5091075;28;20043;-42
2022/04/18 11:57:30;;;;;;;2.47;1.50;;;;;;;8.51;53.73;94472.00;5094819;28;20040;-45
2022/04/18 11:59:57;;;;;;;2.50;2.00;;;;;;;8.74;52.86;94471.22;5092862;28;20452;-43
2022/04/18 12:08:07;;;;;;;3.03;1.20;;;;;;;8.67;51.71;94465.34;5091760;28;20521;-43
2022/04/18 12:10:36;;;;;;;4.38;2.15;;;;;;;7.88;58.10;94447.47;5091202;28;20089;-42
2022/04/18 12:13:11;;;;;;;21.85;8.50;;;;;;;7.74;57.31;94447.69;5092794;28;20413;-42
2022/04/18 12:15:40;;;;;;;5.57;3.53;;;;;;;8.15;55.50;94448.63;5090548;28;20047;-41
2022/04/18 12:18:12;;;;;;;2.83;1.38;;;;;;;8.52;52.44;94456.22;5091610;28;20058;-42
2022/04/18 12:20:57;;;;;;;2.65;1.88;;;;;;;8.52;53.93;94452.84;5089737;28;20105;-43
2022/04/18 12:23:26;;;;;;;;;;;;;;;8.57;54.19;94458.94;5092342;28;20051;-45
2022/04/18 12:25:55;;;;;;;6.35;4.70;;;;;;;8.60;53.63;94450.66;5091055;28;19924;-42
2022/04/18 12:28:28;;;;;;;2.67;1.67;;;;;;;8.66;56.37;94453.38;5090305;28;20047;-43
2022/04/18 12:30:57;;;;;;;2.10;1.40;;;;;;;8.74;55.63;94440.06;5091860;28;20036;-43